Time;durP1;ratioP1;P1;durP2;ratioP2;P2;SDS_P1;SDS_P2;PMS_P1;PMS_P2;Temp;Humidity;BMP_temperature;BMP_pressure;BME280_temperature;BME280_humidity;BME280_pressure;Samples;Min_cycle;Max_cycle;Signal;HPM_P1;HPM_P2
2024/02/18 00:00:36;;;;;;;21.77;13.20;;;7.00;99.90;;;;;;5030462;28;20687;-71
2024/02/18 00:03:04;;;;;;;18.48;11.57;;;7.00;99.90;;;;;;5032960;28;20723;-67
2024/02/18 00:05:33;;;;;;;12.07;10.85;;;7.00;99.90;;;;;;5034775;28;20201;-69
2024/02/18 00:08:01;;;;;;;16.17;12.02;;;7.00;99.90;;;;;;5030727;28;20213;-71
2024/02/18 00:10:29;;;;;;;18.95;12.95;;;6.90;99.90;;;;;;5034411;28;20575;-71
2024/02/18 00:12:56;;;;;;;15.48;11.88;;;7.00;99.90;;;;;;5032477;28;20268;-69
2024/02/18 00:15:23;;;;;;;18.88;12.05;;;7.00;99.90;;;;;;5036497;28;20717;-70
2024/02/18 00:17:50;;;;;;;23.27;12.82;;;6.90;99.90;;;;;;5042926;28;20299;-70
2024/02/18 00:20:17;;;;;;;17.88;11.90;;;6.90;99.90;;;;;;5034955;28;20197;-70
2024/02/18 00:22:44;;;;;;;15.70;10.60;;;6.90;99.90;;;;;;5035691;28;20217;-71
2024/02/18 00:25:13;;;;;;;19.30;12.43;;;6.90;99.90;;;;;;5034787;28;20579;-68
2024/02/18 00:27:40;;;;;;;22.20;12.63;;;6.90;99.90;;;;;;5034174;28;20728;-69
2024/02/18 00:30:08;;;;;;;18.45;11.90;;;6.90;99.90;;;;;;5032284;28;20734;-72
2024/02/18 00:32:35;;;;;;;23.08;12.55;;;6.80;99.90;;;;;;5034081;28;20232;-73
2024/02/18 00:35:02;;;;;;;17.83;12.13;;;6.90;99.90;;;;;;5034066;28;20232;-71
2024/02/18 00:37:29;;;;;;;22.35;9.80;;;6.90;99.90;;;;;;5034319;28;20221;-70
2024/02/18 00:39:56;;;;;;;20.00;13.27;;;6.90;99.90;;;;;;5040799;28;20675;-73
2024/02/18 00:42:25;;;;;;;14.98;11.40;;;6.90;99.90;;;;;;5037554;28;20221;-71
2024/02/18 00:44:52;;;;;;;14.18;10.13;;;7.00;99.90;;;;;;5033583;28;20215;-70
2024/02/18 00:47:18;;;;;;;23.58;12.38;;;7.00;99.90;;;;;;5031904;28;20236;-70
2024/02/18 00:49:45;;;;;;;17.45;11.90;;;7.00;99.90;;;;;;5039048;28;20298;-71
2024/02/18 00:52:12;;;;;;;16.40;12.27;;;6.90;99.90;;;;;;5031027;28;20719;-71
2024/02/18 00:54:39;;;;;;;18.05;12.10;;;6.90;99.90;;;;;;5030726;28;20258;-70
2024/02/18 00:57:06;;;;;;;13.73;11.10;;;6.90;99.90;;;;;;5033985;28;20676;-71
2024/02/18 00:59:35;;;;;;;14.95;10.85;;;6.80;99.90;;;;;;5034354;28;20286;-69
2024/02/18 01:02:02;;;;;;;21.60;12.93;;;6.90;99.90;;;;;;5025153;28;20241;-70
2024/02/18 01:04:30;;;;;;;19.02;11.02;;;6.90;99.90;;;;;;5027186;28;20228;-70
2024/02/18 01:06:57;;;;;;;20.63;12.18;;;7.00;99.90;;;;;;5033216;28;20262;-71
2024/02/18 01:09:24;;;;;;;16.30;10.70;;;7.00;99.90;;;;;;5025729;28;20722;-71
2024/02/18 01:11:51;;;;;;;19.33;11.35;;;7.00;99.90;;;;;;5028863;28;20267;-71
2024/02/18 01:14:18;;;;;;;23.85;11.45;;;7.00;99.90;;;;;;5032491;28;20311;-73
2024/02/18 01:16:47;;;;;;;17.88;12.68;;;7.00;99.90;;;;;;5038089;28;20256;-71
2024/02/18 01:19:16;;;;;;;18.95;11.18;;;7.10;99.90;;;;;;5033906;28;20201;-71
2024/02/18 01:21:43;;;;;;;17.58;11.30;;;7.10;99.90;;;;;;5029692;28;20253;-72
2024/02/18 01:24:11;;;;;;;16.17;10.23;;;7.20;99.90;;;;;;5032771;28;20231;-72
2024/02/18 01:26:38;;;;;;;12.25;9.63;;;7.20;99.90;;;;;;5034207;28;20201;-71
2024/02/18 01:29:06;;;;;;;13.27;10.38;;;7.20;99.90;;;;;;5032748;28;20267;-72
2024/02/18 01:31:33;;;;;;;16.33;9.55;;;7.20;99.90;;;;;;5033249;28;20288;-70
2024/02/18 01:34:01;;;;;;;17.20;10.45;;;7.20;99.90;;;;;;5029640;28;20221;-69
2024/02/18 01:36:28;;;;;;;16.13;11.73;;;7.30;99.90;;;;;;5033301;28;20249;-71
2024/02/18 01:38:55;;;;;;;15.65;10.60;;;7.40;99.90;;;;;;5025247;28;20205;-72
2024/02/18 01:41:23;;;;;;;17.83;10.00;;;7.40;99.90;;;;;;5023211;28;20232;-72
2024/02/18 01:43:50;;;;;;;15.05;9.20;;;7.40;99.90;;;;;;5022015;28;20271;-68
2024/02/18 01:46:17;;;;;;;17.25;9.40;;;7.40;99.90;;;;;;5030699;28;20204;-72
2024/02/18 01:48:44;;;;;;;15.20;9.80;;;7.40;99.90;;;;;;5033101;28;20534;-72
2024/02/18 01:51:13;;;;;;;14.65;10.90;;;7.50;99.90;;;;;;5031284;28;20754;-71
2024/02/18 01:53:41;;;;;;;15.20;10.63;;;7.40;99.90;;;;;;5026851;28;20577;-69
2024/02/18 01:56:09;;;;;;;10.93;9.25;;;7.40;99.90;;;;;;5024667;28;20197;-72
2024/02/18 01:58:36;;;;;;;13.40;9.55;;;7.40;99.90;;;;;;5033563;28;20204;-70
2024/02/18 02:01:04;;;;;;;14.85;10.13;;;7.40;99.90;;;;;;5031334;28;20232;-69
2024/02/18 02:03:31;;;;;;;18.73;12.02;;;7.30;99.90;;;;;;5031339;28;20244;-70
2024/02/18 02:06:00;;;;;;;14.50;11.23;;;7.40;99.90;;;;;;5031531;28;20722;-70
2024/02/18 02:08:28;;;;;;;14.75;10.25;;;7.30;99.90;;;;;;5037212;28;20213;-71
2024/02/18 02:10:56;;;;;;;18.23;12.05;;;7.30;99.90;;;;;;5041085;28;20212;-71
2024/02/18 02:13:23;;;;;;;16.63;12.05;;;7.30;99.90;;;;;;5024490;28;20220;-69
2024/02/18 02:15:51;;;;;;;19.30;11.68;;;7.30;99.90;;;;;;5036912;28;20208;-70
2024/02/18 02:18:18;;;;;;;17.13;11.30;;;7.40;99.90;;;;;;5031087;28;20205;-70
2024/02/18 02:20:45;;;;;;;17.25;12.85;;;7.30;99.90;;;;;;5032578;28;20201;-70
2024/02/18 02:23:12;;;;;;;15.75;12.43;;;7.40;99.90;;;;;;5036571;28;20223;-72
2024/02/18 02:25:40;;;;;;;16.45;11.52;;;7.40;99.90;;;;;;5036940;28;20211;-69
2024/02/18 02:28:15;;;;;;;14.25;11.18;;;7.40;99.90;;;;;;5032466;28;20299;-69
2024/02/18 02:30:44;;;;;;;18.98;11.30;;;7.30;99.90;;;;;;5030803;28;20212;-70
2024/02/18 02:33:11;;;;;;;20.50;12.38;;;7.40;99.90;;;;;;5032434;28;20224;-70
2024/02/18 02:35:38;;;;;;;17.27;11.98;;;7.30;99.90;;;;;;5025700;28;20609;-71
2024/02/18 02:38:05;;;;;;;18.02;12.73;;;7.30;99.90;;;;;;5025968;28;20207;-72
2024/02/18 02:40:32;;;;;;;16.20;10.98;;;7.40;99.90;;;;;;5034023;28;20221;-71
2024/02/18 02:42:59;;;;;;;20.90;12.40;;;7.40;99.90;;;;;;5031806;28;20228;-69
2024/02/18 02:45:26;;;;;;;21.67;12.70;;;7.40;99.90;;;;;;5030435;28;20662;-70
2024/02/18 02:47:54;;;;;;;19.48;12.88;;;7.40;99.90;;;;;;5032084;28;20213;-71
2024/02/18 02:50:21;;;;;;;16.88;12.75;;;7.40;99.90;;;;;;5031625;28;20216;-70
2024/02/18 02:52:48;;;;;;;15.15;11.48;;;7.40;99.90;;;;;;5037044;28;20216;-70
2024/02/18 02:55:15;;;;;;;17.30;12.90;;;7.40;99.90;;;;;;5030273;28;20204;-71
2024/02/18 02:57:42;;;;;;;24.45;14.25;;;7.40;99.90;;;;;;5034366;28;20266;-72
2024/02/18 03:00:10;;;;;;;16.48;13.63;;;7.40;99.90;;;;;;5031069;28;20196;-72
2024/02/18 03:02:38;;;;;;;16.95;13.25;;;7.40;99.90;;;;;;5032211;28;20224;-72
2024/02/18 03:05:07;;;;;;;25.17;13.02;;;7.40;99.90;;;;;;5036398;28;20197;-70
2024/02/18 03:07:34;;;;;;;17.70;13.50;;;7.40;99.90;;;;;;5021881;28;20204;-69
2024/02/18 03:10:02;;;;;;;21.05;12.63;;;7.50;99.90;;;;;;5029370;28;20224;-69
2024/02/18 03:12:30;;;;;;;20.38;13.85;;;7.50;99.90;;;;;;5041060;28;20244;-68
2024/02/18 03:14:57;;;;;;;29.88;13.48;;;7.50;99.90;;;;;;5035999;28;20208;-73
2024/02/18 03:17:24;;;;;;;21.63;15.90;;;7.50;99.90;;;;;;5032716;28;20203;-68
2024/02/18 03:19:52;;;;;;;20.33;14.30;;;7.60;99.90;;;;;;5023925;28;20205;-68
2024/02/18 03:22:23;;;;;;;25.60;18.58;;;7.60;99.90;;;;;;5031999;28;20200;-73
2024/02/18 03:24:50;;;;;;;27.65;16.92;;;7.60;99.90;;;;;;5036127;28;20205;-71
2024/02/18 03:27:18;;;;;;;22.73;17.20;;;7.70;99.90;;;;;;5032083;28;20201;-71
2024/02/18 03:29:45;;;;;;;21.90;13.85;;;7.70;99.90;;;;;;5025154;28;20749;-69
2024/02/18 03:32:12;;;;;;;30.67;18.17;;;7.70;99.90;;;;;;5031142;28;20212;-69
2024/02/18 03:34:40;;;;;;;26.27;18.50;;;7.80;99.90;;;;;;5032021;28;20228;-70
2024/02/18 03:37:07;;;;;;;22.17;16.40;;;7.80;99.90;;;;;;5032180;28;20209;-71
2024/02/18 03:39:35;;;;;;;24.38;17.45;;;7.70;99.90;;;;;;5024785;28;20611;-71
2024/02/18 03:42:02;;;;;;;30.08;19.00;;;7.70;99.90;;;;;;5031308;28;20573;-70
2024/02/18 03:44:29;;;;;;;29.55;18.05;;;7.80;99.90;;;;;;5029181;28;20240;-69
2024/02/18 03:46:56;;;;;;;24.58;17.73;;;7.80;99.90;;;;;;5020696;28;20217;-72
2024/02/18 03:49:23;;;;;;;27.13;20.85;;;7.90;99.90;;;;;;5032020;28;20197;-71
2024/02/18 03:51:50;;;;;;;28.98;21.17;;;7.90;99.90;;;;;;5031147;28;20311;-68
2024/02/18 03:54:18;;;;;;;28.50;20.02;;;7.90;99.90;;;;;;5032637;28;20293;-68
2024/02/18 03:56:47;;;;;;;32.78;20.67;;;8.00;99.90;;;;;;5039699;28;20204;-70
2024/02/18 03:59:14;;;;;;;34.42;22.65;;;8.00;99.90;;;;;;5026218;28;20204;-67
2024/02/18 04:01:41;;;;;;;28.83;22.63;;;8.00;99.90;;;;;;5029575;28;20204;-68
2024/02/18 04:04:09;;;;;;;35.83;23.08;;;8.10;99.90;;;;;;5031646;28;20224;-72
2024/02/18 04:06:36;;;;;;;37.67;23.00;;;8.20;99.90;;;;;;5038117;28;20580;-70
2024/02/18 04:09:03;;;;;;;44.88;25.58;;;8.30;99.90;;;;;;5033241;28;20208;-68
2024/02/18 04:11:30;;;;;;;41.40;24.92;;;8.30;99.90;;;;;;5038041;28;20275;-70
2024/02/18 04:13:58;;;;;;;39.58;25.48;;;8.40;99.90;;;;;;5042861;28;20733;-72
2024/02/18 04:16:25;;;;;;;43.30;27.08;;;8.40;99.90;;;;;;5036721;28;20248;-70
2024/02/18 04:18:54;;;;;;;46.17;27.23;;;8.40;99.90;;;;;;5033229;28;20213;-71
2024/02/18 04:21:21;;;;;;;36.72;24.98;;;8.40;99.90;;;;;;5034492;28;20276;-68
2024/02/18 04:23:49;;;;;;;55.83;28.90;;;8.40;99.90;;;;;;5035377;28;20279;-70
2024/02/18 04:26:16;;;;;;;44.05;27.45;;;8.40;99.90;;;;;;5035095;28;20267;-69
2024/02/18 04:28:45;;;;;;;48.10;30.88;;;8.40;99.90;;;;;;5031757;28;20665;-71
2024/02/18 04:31:13;;;;;;;50.05;30.85;;;8.40;99.90;;;;;;5033695;28;20621;-71
2024/02/18 04:33:41;;;;;;;55.38;30.90;;;8.40;99.90;;;;;;5034869;28;20225;-70
2024/02/18 04:36:09;;;;;;;51.72;33.03;;;8.40;99.90;;;;;;5034046;28;20232;-73
2024/02/18 04:38:36;;;;;;;54.35;33.90;;;8.40;99.90;;;;;;5031441;28;20272;-71
2024/02/18 04:41:03;;;;;;;51.28;32.92;;;8.50;99.90;;;;;;5035346;28;20659;-70
2024/02/18 04:43:30;;;;;;;55.17;31.10;;;8.60;99.90;;;;;;5036449;28;20232;-72
2024/02/18 04:45:57;;;;;;;52.22;33.42;;;8.60;99.90;;;;;;5034653;28;20675;-70
2024/02/18 04:48:25;;;;;;;55.97;33.88;;;8.60;99.90;;;;;;5039940;28;20193;-68
2024/02/18 04:50:52;;;;;;;54.70;33.65;;;8.60;99.90;;;;;;5034231;28;20248;-68
2024/02/18 04:53:19;;;;;;;55.78;36.45;;;8.60;99.90;;;;;;5035784;28;20695;-72
2024/02/18 04:55:46;;;;;;;57.13;34.15;;;8.70;99.90;;;;;;5027349;28;20209;-69
2024/02/18 04:58:13;;;;;;;68.00;37.67;;;8.70;99.90;;;;;;5039577;28;20232;-71
2024/02/18 05:00:40;;;;;;;61.85;35.70;;;8.70;99.90;;;;;;5027897;28;20197;-72
2024/02/18 05:03:07;;;;;;;52.05;34.40;;;8.70;99.90;;;;;;5031707;28;20676;-73
2024/02/18 05:05:36;;;;;;;56.78;35.90;;;8.80;99.90;;;;;;5039598;28;20205;-73
2024/02/18 05:08:03;;;;;;;66.72;38.20;;;8.80;99.90;;;;;;5034753;28;20330;-73
2024/02/18 05:10:30;;;;;;;74.18;40.80;;;8.80;99.90;;;;;;5028039;28;20225;-70
2024/02/18 05:12:57;;;;;;;69.78;39.97;;;8.80;99.90;;;;;;5042167;28;20260;-71
2024/02/18 05:15:24;;;;;;;59.10;37.40;;;8.80;99.90;;;;;;5037572;28;20726;-70
2024/02/18 05:17:51;;;;;;;69.82;40.15;;;8.90;99.90;;;;;;5034232;28;20201;-72
2024/02/18 05:20:18;;;;;;;56.92;33.80;;;8.90;99.90;;;;;;5024580;28;20255;-74
2024/02/18 05:22:46;;;;;;;73.75;41.15;;;8.90;99.90;;;;;;5037452;28;20216;-70
2024/02/18 05:25:13;;;;;;;67.07;40.38;;;9.00;99.90;;;;;;5039163;28;20276;-73
2024/02/18 05:27:40;;;;;;;75.30;41.47;;;9.00;99.90;;;;;;5039373;28;20232;-70
2024/02/18 05:30:08;;;;;;;76.07;39.13;;;9.00;99.90;;;;;;5030359;28;20212;-71
2024/02/18 05:32:35;;;;;;;72.30;42.63;;;9.00;99.90;;;;;;5027474;28;20221;-71
2024/02/18 05:35:02;;;;;;;71.00;41.55;;;9.10;99.90;;;;;;5035176;28;20543;-69
2024/02/18 05:37:29;;;;;;;70.05;39.15;;;9.10;99.90;;;;;;5036855;28;20200;-73
2024/02/18 05:39:58;;;;;;;73.03;40.33;;;9.20;99.90;;;;;;5030260;28;20208;-68
2024/02/18 05:42:24;;;;;;;98.47;45.03;;;9.20;99.90;;;;;;5028809;28;20298;-68
2024/02/18 05:44:51;;;;;;;70.65;38.33;;;9.20;99.90;;;;;;5042620;28;20277;-67
2024/02/18 05:47:18;;;;;;;77.55;44.60;;;9.20;99.90;;;;;;5033664;28;20236;-71
2024/02/18 05:49:45;;;;;;;70.93;40.83;;;9.30;99.90;;;;;;5033983;28;20196;-70
2024/02/18 05:52:13;;;;;;;81.32;43.83;;;9.30;99.90;;;;;;5026265;28;20225;-69
2024/02/18 05:54:39;;;;;;;60.40;39.83;;;9.40;99.90;;;;;;5023002;28;20213;-69
2024/02/18 05:57:08;;;;;;;74.40;45.10;;;9.50;99.90;;;;;;5029807;28;20262;-71
2024/02/18 05:59:35;;;;;;;69.47;41.85;;;9.50;99.90;;;;;;5032661;28;20208;-69
2024/02/18 06:02:02;;;;;;;80.72;43.80;;;9.50;99.90;;;;;;5032916;28;20246;-69
2024/02/18 06:04:29;;;;;;;77.93;45.28;;;9.50;99.90;;;;;;5033727;28;20201;-71
2024/02/18 06:06:57;;;;;;;74.63;42.55;;;9.60;99.90;;;;;;5032223;28;20205;-70
2024/02/18 06:09:24;;;;;;;73.13;42.47;;;9.60;99.90;;;;;;5021583;28;20232;-73
2024/02/18 06:11:52;;;;;;;76.45;42.38;;;9.60;99.90;;;;;;5033245;28;20259;-69
2024/02/18 06:14:20;;;;;;;65.15;37.33;;;9.70;99.90;;;;;;5025400;28;20229;-71
2024/02/18 06:16:47;;;;;;;72.35;41.28;;;9.70;99.90;;;;;;5029459;28;20290;-72
2024/02/18 06:19:14;;;;;;;66.72;37.60;;;9.70;99.90;;;;;;5032751;28;20201;-69
2024/02/18 06:21:41;;;;;;;65.75;39.38;;;9.70;99.90;;;;;;5029253;28;20717;-70
2024/02/18 06:24:09;;;;;;;71.05;38.05;;;9.80;99.90;;;;;;5032597;28;20278;-72
2024/02/18 06:26:39;;;;;;;67.30;38.35;;;9.80;99.90;;;;;;5037582;28;20558;-73
2024/02/18 06:29:07;;;;;;;55.83;35.00;;;9.80;99.90;;;;;;5032796;28;20232;-73
2024/02/18 06:31:35;;;;;;;59.45;37.67;;;9.90;99.90;;;;;;5029694;28;20314;-71
2024/02/18 06:34:02;;;;;;;64.22;37.45;;;9.80;99.90;;;;;;5038036;28;20223;-68
2024/02/18 06:36:31;;;;;;;61.88;36.58;;;9.90;99.90;;;;;;5030268;28;20251;-69
2024/02/18 06:38:58;;;;;;;54.95;36.25;;;10.00;99.90;;;;;;5033817;28;20294;-71
2024/02/18 06:41:25;;;;;;;52.33;33.92;;;10.10;99.90;;;;;;5037399;28;20196;-68
2024/02/18 06:43:51;;;;;;;50.00;27.40;;;10.10;99.90;;;;;;5037548;28;20232;-69
2024/02/18 06:46:18;;;;;;;45.33;27.80;;;10.20;99.90;;;;;;5034788;28;20208;-71
2024/02/18 06:48:48;;;;;;;39.25;26.75;;;10.20;99.90;;;;;;5035796;28;20209;-71
2024/02/18 06:51:15;;;;;;;45.38;27.45;;;10.30;99.90;;;;;;5031429;28;20245;-72
2024/02/18 06:53:42;;;;;;;35.13;23.92;;;10.30;99.90;;;;;;5027309;28;20250;-70
2024/02/18 06:56:09;;;;;;;33.25;22.40;;;10.40;99.90;;;;;;5033858;28;20275;-72
2024/02/18 06:58:36;;;;;;;37.22;23.90;;;10.40;99.90;;;;;;5033097;28;20192;-69
2024/02/18 07:01:04;;;;;;;35.78;21.92;;;10.50;99.90;;;;;;5044412;28;20231;-70
2024/02/18 07:03:31;;;;;;;33.60;22.98;;;10.50;99.90;;;;;;5038915;28;20220;-69
2024/02/18 07:06:00;;;;;;;42.60;25.77;;;10.50;99.90;;;;;;5051212;28;20204;-70
2024/02/18 07:08:28;;;;;;;32.95;20.60;;;10.60;99.90;;;;;;5046269;28;20208;-70
2024/02/18 07:10:55;;;;;;;29.48;21.30;;;10.70;99.90;;;;;;5030184;28;20259;-72
2024/02/18 07:13:22;;;;;;;26.52;18.67;;;10.80;99.90;;;;;;5029889;28;20216;-75
2024/02/18 07:15:49;;;;;;;30.75;19.75;;;10.90;99.90;;;;;;5025125;28;20204;-73
2024/02/18 07:18:16;;;;;;;24.65;15.38;;;10.90;99.90;;;;;;5031615;28;20578;-70
2024/02/18 07:20:43;;;;;;;24.38;16.90;;;10.90;99.90;;;;;;5031126;28;20201;-72
2024/02/18 07:23:12;;;;;;;27.55;18.05;;;10.90;99.90;;;;;;5030880;28;20294;-71
2024/02/18 07:25:40;;;;;;;26.73;16.40;;;11.00;99.90;;;;;;5020782;28;20284;-71
2024/02/18 07:28:07;;;;;;;23.45;16.70;;;11.00;99.90;;;;;;5029730;28;20213;-72
2024/02/18 07:30:34;;;;;;;25.02;16.27;;;11.00;99.90;;;;;;5033097;28;20251;-70
2024/02/18 07:33:01;;;;;;;23.98;16.05;;;11.10;99.90;;;;;;5035335;28;20224;-72
2024/02/18 07:35:28;;;;;;;21.50;14.68;;;11.00;99.90;;;;;;5029226;28;20418;-72
2024/02/18 07:37:56;;;;;;;25.13;16.90;;;11.00;99.90;;;;;;5034660;28;20343;-68
2024/02/18 07:40:25;;;;;;;17.40;12.77;;;11.10;99.90;;;;;;5033086;28;20262;-71
2024/02/18 07:42:52;;;;;;;20.08;14.23;;;11.20;99.90;;;;;;5034176;28;20655;-72
2024/02/18 07:45:19;;;;;;;23.73;17.00;;;11.20;99.90;;;;;;5035818;28;20236;-71
2024/02/18 07:47:46;;;;;;;22.90;13.57;;;11.20;99.90;;;;;;5031168;28;20240;-71
2024/02/18 07:50:13;;;;;;;25.25;17.35;;;11.20;99.90;;;;;;5031969;28;20209;-70
2024/02/18 07:52:40;;;;;;;25.05;12.98;;;11.20;99.90;;;;;;5032532;28;20236;-72
2024/02/18 07:55:07;;;;;;;21.20;15.55;;;11.20;99.90;;;;;;5030712;28;20563;-69
2024/02/18 07:57:35;;;;;;;24.63;15.13;;;11.30;99.90;;;;;;5032886;28;20278;-69
2024/02/18 08:00:03;;;;;;;24.17;14.05;;;11.30;99.90;;;;;;5036662;28;20208;-71
2024/02/18 08:02:30;;;;;;;22.33;16.10;;;11.20;99.90;;;;;;5033366;28;20224;-71
2024/02/18 08:04:58;;;;;;;22.58;13.68;;;11.20;99.90;;;;;;5035641;28;20223;-72
2024/02/18 08:07:25;;;;;;;22.13;14.98;;;11.20;99.90;;;;;;5040227;28;20220;-71
2024/02/18 08:09:54;;;;;;;20.90;12.93;;;11.20;99.90;;;;;;5037327;28;20204;-71
2024/02/18 08:12:21;;;;;;;20.95;14.25;;;11.30;99.90;;;;;;5033460;28;20243;-72
2024/02/18 08:14:49;;;;;;;22.13;13.73;;;11.20;99.90;;;;;;5034795;28;20205;-71
2024/02/18 08:17:16;;;;;;;21.30;12.48;;;11.30;99.90;;;;;;5033897;28;20197;-71
2024/02/18 08:19:43;;;;;;;20.83;15.00;;;11.30;99.90;;;;;;5034853;28;20255;-72
2024/02/18 08:22:11;;;;;;;27.10;15.10;;;11.40;99.90;;;;;;5038959;28;20198;-72
2024/02/18 08:24:38;;;;;;;27.90;13.40;;;11.30;99.90;;;;;;5027819;28;20204;-70
2024/02/18 08:27:05;;;;;;;20.15;14.02;;;11.40;99.90;;;;;;5033751;28;20247;-69
2024/02/18 08:29:32;;;;;;;16.90;12.43;;;11.30;99.90;;;;;;5031788;28;20620;-71
2024/02/18 08:32:02;;;;;;;19.55;14.27;;;11.30;99.90;;;;;;5031909;28;20273;-72
2024/02/18 08:34:29;;;;;;;21.13;15.95;;;11.40;99.90;;;;;;5027816;28;20197;-71
2024/02/18 08:36:57;;;;;;;17.88;12.98;;;11.30;99.90;;;;;;5033525;28;20574;-72
2024/02/18 08:39:24;;;;;;;24.60;14.63;;;11.30;99.90;;;;;;5033247;28;20232;-70
2024/02/18 08:41:51;;;;;;;21.33;14.35;;;11.40;99.90;;;;;;5026847;28;20204;-73
2024/02/18 08:44:18;;;;;;;26.47;16.20;;;11.40;99.90;;;;;;4993776;28;1148235;-71
2024/02/18 08:46:49;;;;;;;20.40;13.85;;;11.30;99.90;;;;;;5032767;28;20209;-69
2024/02/18 08:49:17;;;;;;;24.35;15.32;;;11.20;99.90;;;;;;5033924;28;20606;-72
2024/02/18 08:51:44;;;;;;;20.50;13.07;;;11.10;99.90;;;;;;5030436;28;20221;-70
2024/02/18 08:54:11;;;;;;;24.85;14.55;;;11.20;99.90;;;;;;5032213;28;20244;-71
2024/02/18 08:56:38;;;;;;;18.98;13.30;;;11.10;99.90;;;;;;5028839;28;20216;-74
2024/02/18 08:59:06;;;;;;;20.73;12.77;;;11.10;99.90;;;;;;5033401;28;20201;-74
2024/02/18 09:01:33;;;;;;;25.42;14.90;;;11.20;99.90;;;;;;5025206;28;20630;-73
2024/02/18 09:04:02;;;;;;;18.00;13.15;;;11.10;99.90;;;;;;5034275;28;20232;-73
2024/02/18 09:06:30;;;;;;;16.85;13.20;;;11.10;99.90;;;;;;5030523;28;20204;-75
2024/02/18 09:08:57;;;;;;;19.63;13.70;;;11.10;99.90;;;;;;5038111;28;20686;-72
2024/02/18 09:11:24;;;;;;;15.50;11.15;;;11.20;99.90;;;;;;5032678;28;20715;-70
2024/02/18 09:14:00;;;;;;;20.38;13.55;;;11.20;99.90;;;;;;5044427;28;20238;-73
2024/02/18 09:16:27;;;;;;;12.70;10.75;;;11.20;99.90;;;;;;5035704;28;20196;-70
2024/02/18 09:18:54;;;;;;;15.82;13.57;;;11.00;99.90;;;;;;5029302;28;20272;-71
2024/02/18 09:21:21;;;;;;;21.33;14.13;;;11.10;99.90;;;;;;5030709;28;20652;-71
2024/02/18 09:23:49;;;;;;;23.70;12.80;;;11.10;99.90;;;;;;5039722;28;20225;-73
2024/02/18 09:26:16;;;;;;;16.48;12.82;;;11.10;99.90;;;;;;5034285;28;20625;-70
2024/02/18 09:28:43;;;;;;;18.75;10.90;;;11.20;99.90;;;;;;5032489;28;20205;-72
2024/02/18 09:31:10;;;;;;;16.00;11.82;;;11.20;99.90;;;;;;5032382;28;20275;-71
2024/02/18 09:33:38;;;;;;;17.90;10.68;;;11.20;99.90;;;;;;5033810;28;20753;-71
2024/02/18 09:36:06;;;;;;;15.23;11.40;;;11.30;99.90;;;;;;5043799;28;20230;-70
2024/02/18 09:38:33;;;;;;;19.02;12.02;;;11.30;99.90;;;;;;5033841;28;20326;-73
2024/02/18 09:41:03;;;;;;;15.65;12.77;;;11.40;99.90;;;;;;5033760;28;20243;-71
2024/02/18 09:43:38;;;;;;;13.70;9.15;;;11.30;99.90;;;;;;5033385;28;20264;-71
2024/02/18 09:46:07;;;;;;;18.73;12.07;;;11.40;99.90;;;;;;5035146;28;20215;-72
2024/02/18 09:48:36;;;;;;;21.33;11.13;;;11.40;99.90;;;;;;5045022;28;20201;-71
2024/02/18 09:51:04;;;;;;;14.80;10.23;;;11.40;99.90;;;;;;5047688;28;20213;-71
2024/02/18 09:53:37;;;;;;;16.30;10.85;;;11.30;99.90;;;;;;5045959;28;20236;-73
2024/02/18 09:56:07;;;;;;;20.17;12.43;;;11.40;99.90;;;;;;5031174;28;20209;-70
2024/02/18 09:58:34;;;;;;;14.07;9.57;;;11.40;99.90;;;;;;5035209;28;20627;-74
2024/02/18 10:01:02;;;;;;;14.40;10.38;;;11.30;99.90;;;;;;5027571;28;20282;-74
2024/02/18 10:03:30;;;;;;;15.05;11.27;;;11.30;99.90;;;;;;5036408;28;20221;-73
2024/02/18 10:05:57;;;;;;;13.55;9.30;;;11.40;99.90;;;;;;5036595;28;20708;-73
2024/02/18 10:08:25;;;;;;;16.65;10.35;;;11.40;99.90;;;;;;5037565;28;20258;-69
2024/02/18 10:10:51;;;;;;;17.38;10.80;;;11.40;99.90;;;;;;5028313;28;20197;-74
2024/02/18 10:13:23;;;;;;;21.88;9.77;;;11.40;99.90;;;;;;5030747;28;20224;-71
2024/02/18 10:15:51;;;;;;;13.07;10.50;;;11.30;99.90;;;;;;5032487;28;20296;-70
2024/02/18 10:18:21;;;;;;;12.88;9.48;;;11.30;99.90;;;;;;5032885;28;20218;-73
2024/02/18 10:20:49;;;;;;;15.63;10.63;;;11.40;99.90;;;;;;5032886;28;20295;-73
2024/02/18 10:23:16;;;;;;;14.70;9.70;;;11.40;99.90;;;;;;5040505;28;20223;-74
2024/02/18 10:25:43;;;;;;;11.70;8.77;;;11.40;99.90;;;;;;5034980;28;20275;-73
2024/02/18 10:28:10;;;;;;;11.48;9.18;;;11.40;99.90;;;;;;5031602;28;20240;-77
2024/02/18 10:30:39;;;;;;;13.88;9.40;;;11.40;99.90;;;;;;5028095;28;20262;-72
2024/02/18 10:33:06;;;;;;;14.48;8.45;;;11.40;99.90;;;;;;5030799;28;20235;-73
2024/02/18 10:35:33;;;;;;;7.32;6.63;;;11.40;99.90;;;;;;5032498;28;20196;-73
2024/02/18 10:38:02;;;;;;;13.35;9.15;;;11.50;99.90;;;;;;5027618;28;20208;-74
2024/02/18 10:40:34;;;;;;;13.75;8.00;;;11.40;99.90;;;;;;5030176;28;20203;-74
2024/02/18 10:43:02;;;;;;;10.77;8.27;;;11.40;99.90;;;;;;5030346;28;20301;-73
2024/02/18 10:45:30;;;;;;;11.35;7.55;;;11.30;99.90;;;;;;5032447;28;20209;-74
2024/02/18 10:48:01;;;;;;;11.63;8.63;;;11.40;99.90;;;;;;5035867;28;20212;-72
2024/02/18 10:50:31;;;;;;;17.77;9.57;;;11.20;99.90;;;;;;5030464;28;20197;-74
2024/02/18 10:53:03;;;;;;;12.38;8.73;;;11.20;99.90;;;;;;5028305;28;20316;-70
2024/02/18 10:55:36;;;;;;;10.85;8.43;;;11.20;99.90;;;;;;5032845;28;20236;-74
2024/02/18 10:58:08;;;;;;;11.15;7.70;;;11.00;99.90;;;;;;5027107;28;20659;-73
2024/02/18 11:00:40;;;;;;;8.82;7.05;;;11.00;99.90;;;;;;5026141;28;20205;-72
2024/02/18 11:03:16;;;;;;;10.18;7.07;;;11.10;99.90;;;;;;5017763;28;20304;-70
2024/02/18 11:05:45;;;;;;;11.23;7.20;;;11.00;99.90;;;;;;5030377;28;20254;-71
2024/02/18 11:08:13;;;;;;;7.45;6.18;;;11.10;99.90;;;;;;5031355;28;20211;-73
2024/02/18 11:10:41;;;;;;;9.15;7.05;;;11.20;99.90;;;;;;5028114;28;20263;-72
2024/02/18 11:13:09;;;;;;;10.50;7.22;;;11.20;99.90;;;;;;5030843;28;20286;-74
2024/02/18 11:15:37;;;;;;;14.23;7.80;;;11.20;99.90;;;;;;5028841;28;20655;-72
2024/02/18 11:18:06;;;;;;;9.98;7.45;;;11.10;99.90;;;;;;5028856;28;20193;-73
2024/02/18 11:20:35;;;;;;;8.25;5.93;;;11.10;99.90;;;;;;5027184;28;20204;-74
2024/02/18 11:23:03;;;;;;;10.75;7.07;;;11.10;99.90;;;;;;5029766;28;20216;-74
2024/02/18 11:25:31;;;;;;;17.58;9.25;;;11.10;99.90;;;;;;5031741;28;20201;-74
2024/02/18 11:27:58;;;;;;;7.70;7.00;;;11.10;99.90;;;;;;5029972;28;20200;-73
2024/02/18 11:30:25;;;;;;;12.27;7.53;;;11.10;99.90;;;;;;5031432;28;20212;-74
2024/02/18 11:32:52;;;;;;;12.40;6.57;;;11.20;99.90;;;;;;5030791;28;20274;-75
2024/02/18 11:35:19;;;;;;;7.53;6.82;;;11.20;99.90;;;;;;5032233;28;20208;-75
2024/02/18 11:37:50;;;;;;;7.72;6.35;;;11.20;99.90;;;;;;5032040;28;20244;-73
2024/02/18 11:40:18;;;;;;;9.68;7.43;;;11.10;99.90;;;;;;5029890;28;20205;-73
2024/02/18 11:42:47;;;;;;;14.07;7.80;;;11.00;99.90;;;;;;5030303;28;20310;-74
2024/02/18 11:45:15;;;;;;;10.00;7.07;;;11.00;99.90;;;;;;5036425;28;20205;-71
2024/02/18 11:47:46;;;;;;;8.95;7.30;;;10.90;99.90;;;;;;5032373;28;20282;-73
2024/02/18 11:50:14;;;;;;;12.85;7.28;;;10.90;99.90;;;;;;5030616;28;20206;-74
2024/02/18 11:52:42;;;;;;;9.48;6.40;;;11.00;99.90;;;;;;5031013;28;20232;-71
2024/02/18 11:55:16;;;;;;;9.63;7.20;;;10.90;99.90;;;;;;5035556;28;20210;-73
2024/02/18 11:57:43;;;;;;;12.63;7.28;;;10.80;99.90;;;;;;5025415;28;20211;-74
2024/02/18 12:00:12;;;;;;;6.97;6.20;;;10.90;99.90;;;;;;5033511;28;20731;-75
2024/02/18 12:02:41;;;;;;;13.13;7.82;;;10.90;99.90;;;;;;5022220;28;20228;-74
2024/02/18 12:05:10;;;;;;;7.13;5.65;;;10.70;99.90;;;;;;5027674;28;20205;-71
2024/02/18 12:07:39;;;;;;;9.88;6.10;;;10.70;99.90;;;;;;5024889;28;20721;-75
2024/02/18 12:10:07;;;;;;;8.77;5.45;;;10.80;99.90;;;;;;5028356;28;20208;-72
2024/02/18 12:12:35;;;;;;;6.57;5.97;;;10.80;99.90;;;;;;5021507;28;20836;-72
2024/02/18 12:15:03;;;;;;;8.40;6.00;;;10.60;99.90;;;;;;5030397;28;20298;-72
2024/02/18 12:17:31;;;;;;;7.90;6.45;;;10.60;99.90;;;;;;5028004;28;20212;-71
2024/02/18 12:19:59;;;;;;;7.53;5.28;;;10.70;99.90;;;;;;5035046;28;20250;-73
2024/02/18 12:22:29;;;;;;;6.82;5.05;;;10.80;99.90;;;;;;5030505;28;20220;-74
2024/02/18 12:24:57;;;;;;;10.02;5.43;;;10.80;99.90;;;;;;5041047;28;20201;-71
2024/02/18 12:27:24;;;;;;;7.35;5.07;;;10.70;99.90;;;;;;5034180;28;20201;-73
2024/02/18 12:29:53;;;;;;;7.13;5.55;;;10.70;99.90;;;;;;5034659;28;20205;-74
2024/02/18 12:32:20;;;;;;;10.35;4.55;;;10.60;99.90;;;;;;5034938;28;20224;-75
2024/02/18 12:34:50;;;;;;;9.65;6.05;;;10.70;99.90;;;;;;5029103;28;20263;-71
2024/02/18 12:37:35;;;;;;;5.53;4.80;;;10.70;99.90;;;;;;5033936;28;20200;-74